Time;durP1;ratioP1;P1;durP2;ratioP2;P2;SDS_P1;SDS_P2;PMS_P1;PMS_P2;Temp;Humidity;BMP_temperature;BMP_pressure;BME280_temperature;BME280_humidity;BME280_pressure;Samples;Min_cycle;Max_cycle;Signal;HPM_P1;HPM_P2
2021/10/08 00:01:24;;;;;;;56.60;20.03;;;11.60;94.20;;;;;;5094434;28;20103;-80
2021/10/08 00:03:51;;;;;;;42.27;19.93;;;11.50;94.20;;;;;;5094257;28;20024;-80
2021/10/08 00:06:17;;;;;;;43.27;20.47;;;11.50;94.30;;;;;;5060080;28;20115;-78
2021/10/08 00:08:44;;;;;;;38.57;18.57;;;11.50;94.30;;;;;;5076154;28;20028;-80
2021/10/08 00:11:10;;;;;;;77.80;18.80;;;11.50;94.40;;;;;;5076038;28;20024;-79
2021/10/08 00:13:36;;;;;;;76.37;19.13;;;11.40;94.40;;;;;;5092781;28;20115;-79
2021/10/08 00:16:02;;;;;;;46.90;16.93;;;11.40;94.30;;;;;;5092803;28;20073;-79
2021/10/08 00:18:28;;;;;;;42.27;17.37;;;11.40;94.20;;;;;;5092783;28;20109;-76
2021/10/08 00:20:54;;;;;;;61.47;17.80;;;11.40;94.30;;;;;;5092699;28;20172;-76
2021/10/08 00:23:20;;;;;;;54.13;16.70;;;11.30;94.30;;;;;;5094114;28;20070;-76
2021/10/08 00:25:45;;;;;;;52.07;14.83;;;11.30;94.40;;;;;;5092711;28;20445;-76
2021/10/08 00:28:11;;;;;;;62.20;16.23;;;11.20;94.30;;;;;;5092656;28;20051;-76
2021/10/08 00:30:38;;;;;;;51.80;15.27;;;11.20;94.20;;;;;;5075631;28;20023;-76
2021/10/08 00:33:04;;;;;;;33.13;15.37;;;11.20;94.30;;;;;;5075932;28;20021;-76
2021/10/08 00:35:29;;;;;;;45.50;16.20;;;11.10;94.30;;;;;;5075973;28;20035;-76
2021/10/08 00:37:55;;;;;;;53.90;14.87;;;11.10;94.40;;;;;;5092719;28;20027;-76
2021/10/08 00:40:21;;;;;;;37.67;15.27;;;11.10;94.40;;;;;;5075610;28;20052;-76
2021/10/08 00:42:49;;;;;;;55.37;15.30;;;11.10;94.30;;;;;;5091993;28;20508;-76
2021/10/08 00:45:15;;;;;;;57.10;16.17;;;11.10;94.30;;;;;;5093053;28;20365;-76
2021/10/08 00:47:40;;;;;;;43.37;14.97;;;10.90;94.30;;;;;;5093868;28;20028;-76
2021/10/08 00:50:07;;;;;;;48.97;16.97;;;10.90;94.40;;;;;;5075708;28;20043;-76
2021/10/08 00:52:32;;;;;;;57.27;15.70;;;10.90;94.50;;;;;;5092570;28;20020;-76
2021/10/08 00:54:58;;;;;;;39.33;15.07;;;10.90;94.60;;;;;;5075913;28;20020;-76
2021/10/08 00:57:24;;;;;;;56.37;16.23;;;10.90;94.60;;;;;;5058873;28;20081;-79
2021/10/08 00:59:50;;;;;;;51.53;17.07;;;10.80;94.70;;;;;;5075357;28;20028;-79
2021/10/08 01:02:17;;;;;;;34.70;15.23;;;10.90;94.80;;;;;;5092197;28;20032;-80
2021/10/08 01:04:55;;;;;;;41.53;15.73;;;10.80;94.80;;;;;;5092420;28;20032;-79
2021/10/08 01:07:22;;;;;;;51.87;15.50;;;10.80;94.80;;;;;;5092128;28;20050;-79
2021/10/08 01:09:47;;;;;;;40.17;15.70;;;10.80;94.90;;;;;;5075245;28;20024;-79
2021/10/08 01:12:13;;;;;;;73.20;14.93;;;10.80;94.90;;;;;;5092267;28;20420;-80
2021/10/08 01:14:39;;;;;;;46.50;15.80;;;10.80;94.90;;;;;;5092131;28;20385;-80
2021/10/08 01:17:19;;;;;;;57.57;15.47;;;10.80;94.90;;;;;;5075254;28;20543;-80
2021/10/08 01:19:45;;;;;;;43.70;16.00;;;10.70;94.90;;;;;;5092199;28;20111;-80
2021/10/08 01:22:12;;;;;;;69.90;17.20;;;10.70;94.90;;;;;;5092104;28;20024;-80
2021/10/08 01:24:38;;;;;;;46.23;17.93;;;10.70;95.00;;;;;;5092310;28;20035;-80
2021/10/08 01:27:04;;;;;;;42.43;17.10;;;10.70;95.00;;;;;;5091872;28;20101;-80
2021/10/08 01:29:32;;;;;;;43.60;17.43;;;10.70;95.00;;;;;;5093377;28;20024;-80
2021/10/08 01:31:58;;;;;;;36.80;18.77;;;10.60;95.10;;;;;;5075262;28;20052;-80
2021/10/08 01:34:23;;;;;;;47.83;19.20;;;10.60;95.10;;;;;;5091954;28;20379;-80
2021/10/08 01:36:49;;;;;;;34.57;18.40;;;10.60;95.10;;;;;;5075101;28;20056;-80
2021/10/08 01:39:15;;;;;;;39.77;19.33;;;10.60;95.00;;;;;;5075138;28;20058;-80
2021/10/08 01:41:40;;;;;;;35.27;20.57;;;10.50;95.00;;;;;;5092066;28;20111;-80
2021/10/08 01:44:06;;;;;;;44.10;18.73;;;10.50;95.10;;;;;;5092208;28;20445;-80
2021/10/08 01:46:32;;;;;;;35.93;18.47;;;10.50;95.10;;;;;;5091857;28;20032;-80
2021/10/08 01:48:57;;;;;;;38.87;20.17;;;10.50;95.40;;;;;;5091886;28;20036;-80
2021/10/08 01:51:23;;;;;;;43.87;20.30;;;10.50;95.20;;;;;;5075238;28;20020;-80
2021/10/08 01:53:49;;;;;;;48.57;20.83;;;10.40;95.20;;;;;;5093196;28;20468;-80
2021/10/08 01:56:15;;;;;;;55.73;20.60;;;10.50;95.30;;;;;;5095713;28;20028;-80
2021/10/08 01:58:40;;;;;;;42.70;20.20;;;10.50;95.30;;;;;;5096892;28;20051;-80
2021/10/08 02:01:06;;;;;;;63.50;21.17;;;10.40;95.20;;;;;;5095958;28;20388;-80
2021/10/08 02:03:33;;;;;;;44.27;20.80;;;10.50;95.30;;;;;;5095465;28;20052;-80
2021/10/08 02:05:59;;;;;;;44.43;19.80;;;10.40;95.30;;;;;;5078698;28;20446;-80
2021/10/08 02:08:25;;;;;;;38.80;18.87;;;10.40;95.30;;;;;;5095314;28;20024;-80
2021/10/08 02:10:50;;;;;;;35.97;19.20;;;10.40;95.30;;;;;;5078771;28;20426;-80
2021/10/08 02:13:18;;;;;;;32.70;19.50;;;10.40;95.40;;;;;;5095331;28;20561;-80
2021/10/08 02:15:45;;;;;;;36.87;20.07;;;10.40;95.40;;;;;;5095366;28;20503;-80
2021/10/08 02:18:11;;;;;;;38.53;19.73;;;10.30;95.40;;;;;;5078526;28;20084;-80
2021/10/08 02:20:37;;;;;;;41.10;19.53;;;10.30;95.40;;;;;;5095159;28;20103;-80
2021/10/08 02:23:02;;;;;;;69.27;19.07;;;10.30;95.50;;;;;;5095199;28;20063;-79
2021/10/08 02:25:28;;;;;;;57.73;19.80;;;10.30;95.50;;;;;;5096066;28;20028;-79
2021/10/08 02:27:54;;;;;;;48.87;19.37;;;10.40;95.50;;;;;;5077727;28;20849;-80
2021/10/08 02:30:19;;;;;;;38.23;18.53;;;10.30;95.50;;;;;;5096179;28;20021;-80
2021/10/08 02:32:45;;;;;;;58.73;19.87;;;10.20;95.50;;;;;;5077926;28;20062;-79
2021/10/08 02:35:11;;;;;;;53.17;18.60;;;10.30;95.50;;;;;;5077876;28;20376;-79
2021/10/08 02:37:37;;;;;;;40.37;18.70;;;10.20;95.50;;;;;;5094692;28;20019;-79
2021/10/08 02:40:04;;;;;;;76.23;17.90;;;10.20;95.40;;;;;;5094646;28;20024;-79
2021/10/08 02:42:30;;;;;;;53.13;19.20;;;10.20;95.30;;;;;;5077874;28;20115;-79
2021/10/08 02:44:56;;;;;;;64.37;17.33;;;10.20;95.30;;;;;;5077838;28;20212;-79
2021/10/08 02:47:22;;;;;;;71.23;15.47;;;10.10;95.20;;;;;;5077609;28;20028;-79
2021/10/08 02:49:48;;;;;;;69.57;15.73;;;10.00;95.20;;;;;;5094438;28;20112;-79
2021/10/08 02:52:13;;;;;;;78.10;13.97;;;10.00;95.10;;;;;;5094534;28;20028;-79
2021/10/08 02:54:39;;;;;;;51.70;12.23;;;9.90;95.10;;;;;;5077591;28;20024;-79
2021/10/08 02:57:05;;;;;;;78.30;13.33;;;9.90;95.10;;;;;;5094559;28;20075;-78
2021/10/08 02:59:31;;;;;;;58.33;13.47;;;9.80;95.10;;;;;;5060870;28;20085;-79
2021/10/08 03:01:57;;;;;;;54.13;12.30;;;9.70;95.10;;;;;;5095961;28;20024;-79
2021/10/08 03:04:22;;;;;;;48.43;12.43;;;9.70;95.20;;;;;;5077359;28;20040;-79
2021/10/08 03:06:48;;;;;;;42.60;11.87;;;9.60;95.20;;;;;;5093620;28;20028;-78
2021/10/08 03:09:14;;;;;;;47.53;13.90;;;9.60;95.20;;;;;;5094182;28;20054;-79
2021/10/08 03:11:40;;;;;;;54.07;12.37;;;9.60;95.20;;;;;;5095619;28;20024;-79
2021/10/08 03:14:06;;;;;;;38.67;12.37;;;9.60;95.30;;;;;;5094378;28;20093;-79
2021/10/08 03:16:32;;;;;;;42.13;12.80;;;9.50;95.30;;;;;;5077543;28;20120;-79
2021/10/08 03:18:57;;;;;;;53.03;12.63;;;9.50;95.30;;;;;;5094241;28;20028;-79
2021/10/08 03:21:23;;;;;;;106.77;14.07;;;9.50;95.40;;;;;;5077387;28;20061;-79
2021/10/08 03:23:49;;;;;;;67.00;13.13;;;9.50;95.50;;;;;;5060378;28;20035;-79
2021/10/08 03:26:15;;;;;;;66.83;13.40;;;9.50;95.50;;;;;;5076750;28;20129;-79
2021/10/08 03:28:41;;;;;;;50.00;13.70;;;9.60;95.60;;;;;;5094950;28;20024;-79
2021/10/08 03:31:06;;;;;;;66.87;13.83;;;9.40;95.60;;;;;;5093921;28;20024;-79
2021/10/08 03:33:32;;;;;;;80.77;12.13;;;9.50;95.60;;;;;;5093643;28;20028;-79
2021/10/08 03:35:58;;;;;;;70.43;12.30;;;9.40;95.60;;;;;;5093851;28;20036;-79
2021/10/08 03:38:24;;;;;;;61.53;13.83;;;9.40;95.60;;;;;;5076740;28;20020;-78
2021/10/08 03:41:31;;;;;;;42.97;13.27;;;9.40;95.60;;;;;;5076861;28;20052;-79
2021/10/08 03:43:40;;;;;;;50.73;12.07;;;9.50;95.70;;;;;;5069437;28;20032;-79
2021/10/08 03:46:08;;;;;;;32.97;11.77;;;9.40;95.60;;;;;;5093486;28;20027;-79
2021/10/08 03:51:18;;;;;;;42.55;12.60;;;9.40;95.70;;;;;;5094670;28;20066;-79
2021/10/08 03:53:43;;;;;;;77.10;13.53;;;9.40;95.70;;;;;;5059884;28;20052;-79
2021/10/08 03:56:09;;;;;;;29.03;12.53;;;9.40;95.60;;;;;;5093351;28;20081;-79
2021/10/08 03:58:34;;;;;;;31.43;11.90;;;9.30;95.70;;;;;;5093297;28;20046;-79
2021/10/08 04:01:00;;;;;;;43.17;12.50;;;9.20;95.70;;;;;;5059627;28;20036;-79
2021/10/08 04:03:26;;;;;;;38.10;13.13;;;9.30;95.80;;;;;;5094630;28;20036;-76
2021/10/08 04:05:51;;;;;;;48.23;13.40;;;9.20;95.80;;;;;;5093439;28;20155;-76
2021/10/08 04:08:17;;;;;;;39.03;13.47;;;9.20;95.80;;;;;;5093283;28;20528;-76
2021/10/08 04:10:42;;;;;;;36.87;13.87;;;9.20;95.80;;;;;;5093230;28;20024;-76
2021/10/08 04:13:08;;;;;;;25.47;12.60;;;9.10;95.90;;;;;;5076042;28;20025;-76
2021/10/08 04:15:34;;;;;;;53.87;14.03;;;9.10;96.00;;;;;;5093318;28;20032;-76
2021/10/08 04:17:59;;;;;;;39.80;15.10;;;9.20;96.00;;;;;;5094249;28;20060;-77
2021/10/08 04:20:25;;;;;;;48.73;15.30;;;9.20;95.90;;;;;;5059281;28;20055;-76
2021/10/08 04:22:50;;;;;;;50.63;15.93;;;9.10;95.90;;;;;;5059034;28;20035;-77
2021/10/08 04:25:17;;;;;;;35.63;14.33;;;9.20;96.00;;;;;;5059139;28;20063;-76
2021/10/08 04:27:43;;;;;;;66.60;15.20;;;9.20;96.10;;;;;;5075418;28;20076;-76
2021/10/08 04:30:09;;;;;;;78.23;15.70;;;9.20;96.10;;;;;;5059535;28;20055;-76
2021/10/08 04:32:34;;;;;;;55.57;14.67;;;9.20;96.10;;;;;;5076123;28;20028;-77
2021/10/08 04:35:00;;;;;;;55.67;14.03;;;9.20;96.00;;;;;;5092750;28;20476;-76
2021/10/08 04:37:25;;;;;;;58.83;12.93;;;9.10;96.00;;;;;;5075775;28;20028;-76
2021/10/08 04:39:51;;;;;;;47.37;12.47;;;9.20;96.00;;;;;;5075700;28;20580;-76
2021/10/08 04:42:17;;;;;;;67.53;12.60;;;9.10;95.90;;;;;;5058943;28;20028;-76
2021/10/08 04:44:42;;;;;;;45.43;12.77;;;9.00;95.90;;;;;;5059273;28;20032;-76
2021/10/08 04:47:10;;;;;;;45.30;13.23;;;9.00;96.00;;;;;;5092248;28;20404;-76
2021/10/08 04:49:36;;;;;;;44.60;13.13;;;9.00;95.90;;;;;;5092471;28;20036;-77
2021/10/08 04:52:02;;;;;;;78.67;12.37;;;9.00;96.00;;;;;;5093956;28;20036;-76
2021/10/08 04:54:27;;;;;;;45.50;13.07;;;9.00;96.00;;;;;;5075919;28;20109;-75
2021/10/08 04:56:53;;;;;;;65.93;13.60;;;9.00;96.10;;;;;;5075956;28;20063;-79
2021/10/08 04:59:19;;;;;;;41.93;11.73;;;9.00;96.10;;;;;;5059177;28;20032;-77
2021/10/08 05:01:44;;;;;;;64.63;12.73;;;9.00;96.10;;;;;;5075817;28;20032;-77
2021/10/08 05:04:10;;;;;;;60.60;14.47;;;9.00;96.10;;;;;;5075286;28;20035;-77
2021/10/08 05:06:35;;;;;;;59.10;13.37;;;8.90;96.10;;;;;;5075548;28;20441;-77
2021/10/08 05:09:01;;;;;;;56.83;13.27;;;9.10;96.30;;;;;;5058597;28;20400;-76
2021/10/08 05:11:27;;;;;;;66.17;13.57;;;9.00;96.30;;;;;;5075194;28;20024;-75
2021/10/08 05:13:52;;;;;;;67.93;13.47;;;9.00;96.30;;;;;;5092999;28;20077;-74
2021/10/08 05:16:18;;;;;;;43.13;13.80;;;9.00;96.60;;;;;;5058748;28;20070;-77
2021/10/08 05:18:44;;;;;;;58.87;13.33;;;9.00;96.40;;;;;;5082926;28;20420;-76
2021/10/08 05:21:09;;;;;;;61.67;14.17;;;9.00;96.40;;;;;;5047587;28;20029;-75
2021/10/08 05:23:35;;;;;;;45.90;13.80;;;9.10;96.40;;;;;;5051463;28;20036;-79
2021/10/08 05:26:02;;;;;;;58.97;14.33;;;9.10;96.40;;;;;;5082232;28;20028;-79
2021/10/08 05:28:28;;;;;;;45.67;13.93;;;9.10;96.40;;;;;;5080812;28;20395;-78
2021/10/08 05:30:54;;;;;;;52.23;13.97;;;8.90;96.40;;;;;;5067330;28;20024;-79
2021/10/08 05:33:20;;;;;;;70.07;15.50;;;9.00;96.50;;;;;;5080990;28;20181;-79
2021/10/08 05:35:45;;;;;;;106.77;17.03;;;9.00;96.50;;;;;;5068176;28;20536;-79
2021/10/08 05:38:11;;;;;;;47.87;14.17;;;9.00;96.50;;;;;;5062210;28;20484;-79
2021/10/08 05:40:36;;;;;;;45.17;15.30;;;9.10;96.50;;;;;;5088774;28;20036;-78
2021/10/08 05:43:03;;;;;;;57.63;16.53;;;9.00;96.50;;;;;;5077873;28;20365;-79
2021/10/08 05:45:29;;;;;;;53.77;15.37;;;9.10;96.50;;;;;;5077506;28;20030;-78
2021/10/08 05:47:54;;;;;;;63.37;16.27;;;9.10;96.50;;;;;;5075567;28;20032;-79
2021/10/08 05:50:20;;;;;;;89.73;18.10;;;9.10;96.50;;;;;;5075921;28;20108;-78
2021/10/08 05:52:46;;;;;;;37.80;16.70;;;9.10;96.60;;;;;;5058882;28;20487;-78
2021/10/08 05:55:11;;;;;;;63.73;16.53;;;9.10;96.60;;;;;;5058621;28;20024;-79
2021/10/08 05:57:37;;;;;;;84.60;17.90;;;9.10;96.60;;;;;;5058498;28;20024;-79
2021/10/08 06:00:04;;;;;;;42.67;16.60;;;9.10;96.90;;;;;;5058620;28;20025;-79
2021/10/08 06:02:30;;;;;;;93.03;18.37;;;9.10;96.70;;;;;;5075210;28;20021;-79
2021/10/08 06:04:55;;;;;;;78.13;17.23;;;9.10;97.00;;;;;;5058675;28;20051;-79
2021/10/08 06:07:21;;;;;;;112.50;18.33;;;9.10;96.70;;;;;;5058617;28;20020;-79
2021/10/08 06:09:47;;;;;;;121.60;17.73;;;9.10;96.80;;;;;;5074936;28;20077;-77
2021/10/08 06:12:13;;;;;;;68.43;16.07;;;9.00;96.80;;;;;;5075141;28;20032;-78
2021/10/08 06:14:40;;;;;;;74.10;17.63;;;9.10;96.90;;;;;;5074803;28;20388;-77
2021/10/08 06:17:06;;;;;;;62.83;18.23;;;9.10;97.00;;;;;;5057924;28;20099;-78
2021/10/08 06:19:31;;;;;;;45.60;16.93;;;9.10;97.00;;;;;;5058010;28;20185;-78
2021/10/08 06:21:57;;;;;;;60.63;18.10;;;9.20;97.10;;;;;;5075423;28;20429;-78
2021/10/08 06:24:22;;;;;;;87.97;18.23;;;9.10;97.10;;;;;;5074953;28;20419;-78
2021/10/08 06:26:48;;;;;;;62.70;18.33;;;9.20;97.20;;;;;;5057845;28;20094;-77
2021/10/08 06:29:14;;;;;;;139.77;19.10;;;9.20;97.10;;;;;;5074221;28;20056;-77
2021/10/08 06:31:39;;;;;;;74.93;18.13;;;9.30;97.20;;;;;;5057663;28;20385;-78
2021/10/08 06:34:05;;;;;;;69.60;18.53;;;9.30;97.20;;;;;;5057991;28;20020;-77
2021/10/08 06:36:31;;;;;;;77.73;17.60;;;9.30;97.30;;;;;;5058024;28;20380;-78
2021/10/08 06:38:57;;;;;;;65.70;18.17;;;9.20;97.30;;;;;;5076053;28;20108;-77
2021/10/08 06:41:22;;;;;;;122.83;19.37;;;9.40;97.30;;;;;;5056490;28;20067;-77
2021/10/08 06:43:48;;;;;;;62.33;16.70;;;9.50;97.30;;;;;;5075069;28;20074;-77
2021/10/08 06:46:14;;;;;;;103.13;16.77;;;9.50;97.30;;;;;;5074381;28;20117;-78
2021/10/08 06:48:39;;;;;;;67.13;17.50;;;9.50;97.30;;;;;;5074645;28;20087;-77
2021/10/08 06:51:05;;;;;;;106.10;17.40;;;9.50;97.30;;;;;;5074419;28;20050;-78
2021/10/08 06:53:31;;;;;;;57.53;16.30;;;9.50;97.40;;;;;;5076068;28;20060;-78
2021/10/08 06:55:58;;;;;;;55.90;16.73;;;9.60;97.40;;;;;;5074240;28;20048;-77
2021/10/08 06:58:23;;;;;;;83.33;16.97;;;9.60;97.40;;;;;;5074521;28;20021;-78
2021/10/08 07:00:53;;;;;;;49.73;16.60;;;9.60;97.40;;;;;;5074191;28;20081;-77
2021/10/08 07:03:20;;;;;;;53.70;17.27;;;9.60;97.40;;;;;;5074469;28;20025;-77
2021/10/08 07:05:46;;;;;;;47.93;16.50;;;9.70;97.50;;;;;;5075667;28;20025;-78
2021/10/08 07:08:11;;;;;;;67.60;16.30;;;9.80;97.50;;;;;;5074030;28;20037;-78
2021/10/08 07:10:38;;;;;;;42.00;17.07;;;9.80;97.50;;;;;;5075165;28;20099;-78
2021/10/08 07:13:04;;;;;;;47.87;18.00;;;9.80;97.40;;;;;;5057309;28;20034;-78
2021/10/08 07:15:30;;;;;;;40.03;17.00;;;9.80;97.40;;;;;;5075183;28;20029;-77
2021/10/08 07:17:56;;;;;;;43.73;16.13;;;9.90;97.50;;;;;;5075470;28;20411;-78
2021/10/08 07:20:24;;;;;;;44.67;15.50;;;9.90;97.50;;;;;;5057491;28;20059;-78
2021/10/08 07:22:50;;;;;;;44.30;17.00;;;10.00;97.50;;;;;;5074780;28;20046;-78
2021/10/08 07:25:16;;;;;;;50.03;15.77;;;10.10;97.50;;;;;;5074856;28;20055;-77
2021/10/08 07:27:45;;;;;;;59.23;16.80;;;10.10;97.50;;;;;;5056934;28;20083;-78
2021/10/08 07:30:10;;;;;;;49.53;17.27;;;10.10;97.40;;;;;;5074747;28;20013;-78
2021/10/08 07:32:37;;;;;;;50.63;16.67;;;10.20;97.40;;;;;;5073871;28;20021;-78
2021/10/08 07:35:03;;;;;;;46.57;17.03;;;10.20;97.40;;;;;;5056832;28;20111;-78
2021/10/08 07:37:29;;;;;;;39.80;15.70;;;10.30;97.40;;;;;;5074622;28;20025;-78
2021/10/08 07:39:56;;;;;;;66.10;16.15;;;10.30;97.40;;;;;;5056827;28;20052;-78
2021/10/08 07:42:22;;;;;;;46.97;16.53;;;10.40;97.70;;;;;;5073164;28;20028;-78
2021/10/08 07:44:48;;;;;;;36.90;16.87;;;10.40;97.40;;;;;;5073213;28;20021;-78
2021/10/08 07:47:14;;;;;;;47.03;17.10;;;10.40;97.40;;;;;;5073347;28;20127;-77
2021/10/08 07:49:40;;;;;;;35.53;16.97;;;10.50;97.40;;;;;;5074554;28;20384;-76
2021/10/08 07:52:06;;;;;;;34.47;17.70;;;10.50;97.40;;;;;;5056440;28;20032;-76
2021/10/08 07:54:32;;;;;;;70.17;17.20;;;10.60;97.30;;;;;;5074659;28;20029;-76
2021/10/08 07:56:58;;;;;;;34.50;17.33;;;10.60;97.30;;;;;;5074652;28;20035;-76
2021/10/08 07:59:24;;;;;;;38.87;16.27;;;10.70;97.20;;;;;;5056854;28;20389;-76
2021/10/08 08:01:49;;;;;;;64.97;18.10;;;10.70;97.20;;;;;;5074495;28;20024;-76
2021/10/08 08:04:15;;;;;;;57.58;17.65;;;10.90;97.30;;;;;;5073317;28;20032;-75
2021/10/08 08:06:41;;;;;;;50.03;17.42;;;10.80;97.20;;;;;;5056370;28;20032;-76
2021/10/08 08:09:06;;;;;;;37.15;17.05;;;10.90;97.10;;;;;;5074279;28;20104;-76
2021/10/08 08:11:32;;;;;;;60.93;19.57;;;10.90;97.10;;;;;;5074150;28;20423;-76
2021/10/08 08:13:58;;;;;;;50.30;17.23;;;11.00;97.10;;;;;;5072792;28;20082;-76
2021/10/08 08:16:23;;;;;;;38.53;16.67;;;11.10;97.20;;;;;;5073861;28;20369;-76
2021/10/08 08:18:49;;;;;;;33.75;18.75;;;11.10;97.20;;;;;;5074215;28;20111;-76
2021/10/08 08:21:15;;;;;;;38.30;18.13;;;11.20;97.30;;;;;;5073070;28;20044;-76
2021/10/08 08:23:41;;;;;;;61.60;17.67;;;11.30;97.30;;;;;;5056022;28;20429;-76
2021/10/08 08:26:06;;;;;;;33.88;17.52;;;11.40;97.20;;;;;;5055679;28;20488;-76
2021/10/08 08:28:32;;;;;;;41.35;18.45;;;11.50;97.20;;;;;;5073053;28;20081;-76
2021/10/08 08:30:57;;;;;;;43.67;16.60;;;11.50;97.10;;;;;;5072664;28;20033;-77
2021/10/08 08:33:24;;;;;;;33.03;17.40;;;11.60;97.00;;;;;;5072838;28;20044;-78
2021/10/08 08:35:50;;;;;;;58.33;19.17;;;11.60;96.70;;;;;;5055609;28;20029;-77
2021/10/08 08:38:16;;;;;;;46.08;16.52;;;11.70;96.70;;;;;;5072161;28;20036;-78
2021/10/08 08:40:42;;;;;;;37.25;17.80;;;11.70;96.50;;;;;;5072453;28;20354;-77
2021/10/08 08:43:07;;;;;;;46.85;17.02;;;11.80;96.40;;;;;;5055878;28;20469;-79
2021/10/08 08:45:34;;;;;;;35.15;17.75;;;11.80;96.40;;;;;;5073711;28;20513;-77
2021/10/08 08:48:08;;;;;;;37.25;17.17;;;11.90;96.50;;;;;;5055590;28;20400;-76
2021/10/08 08:50:35;;;;;;;;;;;12.00;96.50;;;;;;5074236;28;20025;-76
2021/10/08 08:53:00;;;;;;;42.22;17.63;;;12.10;96.50;;;;;;5073579;28;19911;-76
2021/10/08 08:55:26;;;;;;;38.38;17.75;;;12.20;96.50;;;;;;5074033;28;20020;-77
2021/10/08 08:57:52;;;;;;;34.55;18.63;;;12.30;96.50;;;;;;5073772;28;20039;-76
2021/10/08 09:00:20;;;;;;;29.73;17.40;;;12.40;96.60;;;;;;5072078;28;20052;-76
2021/10/08 09:02:56;;;;;;;32.83;17.98;;;12.60;96.60;;;;;;5071476;28;20464;-76
2021/10/08 09:05:27;;;;;;;29.35;18.80;;;12.70;96.60;;;;;;5072221;28;20024;-76
2021/10/08 09:08:04;;;;;;;35.35;20.67;;;12.80;96.60;;;;;;5072464;28;20101;-76
2021/10/08 09:10:35;;;;;;;33.00;20.80;;;12.90;96.50;;;;;;5073526;28;20111;-76
2021/10/08 09:13:01;;;;;;;29.83;19.85;;;13.10;96.50;;;;;;5072212;28;20031;-77
2021/10/08 09:15:30;;;;;;;34.70;20.98;;;13.20;96.40;;;;;;5073748;28;20029;-76
2021/10/08 09:18:07;;;;;;;36.00;22.20;;;13.20;96.20;;;;;;5072419;28;20021;-76
2021/10/08 09:20:34;;;;;;;37.50;22.10;;;13.30;96.00;;;;;;5073350;28;20054;-76
2021/10/08 09:23:00;;;;;;;35.72;22.92;;;13.40;95.80;;;;;;5071890;28;20028;-76
2021/10/08 09:25:26;;;;;;;39.55;23.23;;;13.50;95.60;;;;;;5071748;28;20035;-76
2021/10/08 09:27:55;;;;;;;39.08;25.50;;;13.50;95.40;;;;;;5070818;28;20076;-77
2021/10/08 09:30:45;;;;;;;39.60;26.52;;;13.50;95.20;;;;;;5073102;28;20103;-77
2021/10/08 09:33:19;;;;;;;43.15;25.10;;;13.50;95.00;;;;;;5072091;28;20031;-77
2021/10/08 09:35:45;;;;;;;40.30;25.15;;;13.60;95.00;;;;;;5072167;28;20103;-76
2021/10/08 09:38:15;;;;;;;43.95;25.38;;;13.70;95.00;;;;;;5072902;28;20029;-76
2021/10/08 09:41:05;;;;;;;38.75;24.65;;;13.80;95.00;;;;;;5072238;28;20024;-76
2021/10/08 09:43:31;;;;;;;41.03;25.70;;;14.00;95.00;;;;;;5072022;28;20028;-76
2021/10/08 09:46:00;;;;;;;37.03;23.60;;;14.30;95.00;;;;;;5072025;28;20029;-76
2021/10/08 09:48:35;;;;;;;39.20;25.15;;;14.60;95.10;;;;;;5071703;28;20021;-77
2021/10/08 09:51:13;;;;;;;34.72;23.13;;;15.00;95.20;;;;;;5071454;28;20051;-77
2021/10/08 09:53:48;;;;;;;33.58;21.92;;;15.60;95.50;;;;;;5072638;28;20095;-76
2021/10/08 09:56:37;;;;;;;29.33;20.42;;;16.20;95.60;;;;;;5072577;28;20029;-77
2021/10/08 09:59:13;;;;;;;24.60;16.88;;;17.00;95.20;;;;;;5071283;28;20032;-78
2021/10/08 10:01:41;;;;;;;25.95;18.38;;;17.80;95.20;;;;;;5071525;28;20503;-79
2021/10/08 10:04:09;;;;;;;26.15;16.77;;;18.60;95.10;;;;;;5073122;28;20094;-78
2021/10/08 10:06:39;;;;;;;19.73;14.82;;;19.40;94.00;;;;;;5071561;28;20044;-78
2021/10/08 10:09:08;;;;;;;20.00;14.23;;;20.20;93.10;;;;;;5071420;28;20024;-80
2021/10/08 10:11:35;;;;;;;19.67;14.88;;;21.00;91.70;;;;;;5071778;28;20021;-80
2021/10/08 10:14:02;;;;;;;19.48;14.27;;;21.70;90.50;;;;;;5072932;28;20050;-79
2021/10/08 10:16:30;;;;;;;18.48;14.48;;;22.40;87.80;;;;;;5075026;28;20029;-78
2021/10/08 10:18:59;;;;;;;24.23;14.77;;;23.00;84.30;;;;;;5075060;28;20024;-79
2021/10/08 10:21:32;;;;;;;17.98;13.13;;;23.50;81.30;;;;;;5076788;28;20023;-79
2021/10/08 10:24:01;;;;;;;16.77;13.00;;;24.10;77.30;;;;;;5076523;28;20031;-80
2021/10/08 10:26:30;;;;;;;17.48;13.60;;;24.60;75.10;;;;;;5074662;28;20502;-79
2021/10/08 10:28:58;;;;;;;19.20;14.65;;;25.10;72.00;;;;;;5076543;28;20035;-78
2021/10/08 10:31:25;;;;;;;15.77;13.18;;;25.50;70.10;;;;;;5075971;28;20074;-79
2021/10/08 10:33:55;;;;;;;18.05;13.93;;;26.00;67.50;;;;;;5076010;28;20012;-78
2021/10/08 10:36:26;;;;;;;15.23;12.77;;;26.20;65.50;;;;;;5092253;28;20020;-78
2021/10/08 10:39:12;;;;;;;17.92;13.80;;;26.20;63.20;;;;;;5086470;28;20020;-78
2021/10/08 10:41:48;;;;;;;14.52;10.88;;;26.10;62.20;;;;;;5094257;28;20536;-78
2021/10/08 10:44:26;;;;;;;15.68;12.57;;;25.80;61.10;;;;;;5094049;28;20100;-78
2021/10/08 10:47:07;;;;;;;16.90;12.70;;;25.50;60.00;;;;;;5081490;28;20028;-78
2021/10/08 10:52:09;;;;;;;17.02;12.10;;;25.10;59.10;;;;;;5076619;28;20090;-78
2021/10/08 10:54:35;;;;;;;19.23;12.23;;;25.00;58.70;;;;;;5074649;28;20020;-78
2021/10/08 10:57:04;;;;;;;16.55;10.88;;;24.80;58.50;;;;;;5078272;28;20016;-78
2021/10/08 10:59:32;;;;;;;16.77;11.85;;;24.60;58.30;;;;;;5074604;28;20028;-76
2021/10/08 11:02:10;;;;;;;15.90;11.32;;;24.60;58.30;;;;;;5080600;28;20027;-76
2021/10/08 11:04:37;;;;;;;14.25;10.20;;;24.50;58.10;;;;;;5078214;28;20031;-76
2021/10/08 11:07:11;;;;;;;12.23;9.52;;;24.40;58.20;;;;;;5075289;28;20124;-76
2021/10/08 11:09:38;;;;;;;14.07;10.85;;;24.40;57.80;;;;;;5081551;28;20483;-76
2021/10/08 11:12:34;;;;;;;11.95;9.48;;;24.40;57.60;;;;;;5094818;28;20103;-78
2021/10/08 11:15:20;;;;;;;11.63;8.90;;;24.40;57.20;;;;;;5094749;28;20488;-76
2021/10/08 11:18:04;;;;;;;9.38;6.90;;;24.40;57.20;;;;;;5094776;28;20028;-77
2021/10/08 11:20:36;;;;;;;11.02;8.00;;;24.50;57.40;;;;;;5094312;28;20032;-78
2021/10/08 11:23:04;;;;;;;11.50;7.63;;;24.50;57.80;;;;;;5094222;28;20346;-79
2021/10/08 11:25:35;;;;;;;12.57;8.52;;;24.60;56.90;;;;;;5094769;28;20028;-77
2021/10/08 11:28:00;;;;;;;10.27;7.78;;;24.70;56.40;;;;;;5094454;28;20047;-77
2021/10/08 11:30:28;;;;;;;11.95;7.40;;;24.80;55.90;;;;;;5094232;28;20027;-77
2021/10/08 11:32:57;;;;;;;10.35;6.40;;;25.00;55.50;;;;;;5095148;28;20124;-77
2021/10/08 11:35:34;;;;;;;9.45;6.32;;;25.10;55.00;;;;;;5095174;28;20490;-77
2021/10/08 11:38:02;;;;;;;10.13;6.65;;;25.20;54.30;;;;;;5093783;28;20078;-77
2021/10/08 11:40:34;;;;;;;10.18;7.40;;;25.30;54.30;;;;;;5076835;28;20476;-77
2021/10/08 11:43:09;;;;;;;10.50;6.93;;;25.40;53.90;;;;;;5095210;28;20031;-77
2021/10/08 11:48:15;;;;;;;7.57;5.80;;;25.60;53.50;;;;;;5095016;28;20060;-77
2021/10/08 11:53:09;;;;;;;8.43;5.07;;;25.90;53.20;;;;;;5093563;28;20024;-78
2021/10/08 11:55:41;;;;;;;6.28;4.22;;;25.90;52.80;;;;;;5094080;28;20075;-78
2021/10/08 11:58:08;;;;;;;8.38;4.13;;;26.10;52.40;;;;;;5094820;28;20426;-77
2021/10/08 12:00:47;;;;;;;7.25;3.80;;;26.30;52.10;;;;;;5094973;28;20028;-77
2021/10/08 12:03:18;;;;;;;5.40;3.30;;;26.50;51.50;;;;;;5076701;28;20032;-77
2021/10/08 12:06:06;;;;;;;5.82;3.40;;;26.60;51.10;;;;;;5094662;28;20059;-77
2021/10/08 12:08:33;;;;;;;5.28;3.28;;;26.90;50.00;;;;;;5093355;28;20032;-77
2021/10/08 12:11:07;;;;;;;4.30;2.30;;;27.00;50.40;;;;;;5094835;28;20099;-77
2021/10/08 12:13:44;;;;;;;4.57;2.78;;;27.20;49.70;;;;;;5094473;28;20418;-78
2021/10/08 12:16:16;;;;;;;3.97;1.98;;;27.40;49.50;;;;;;5092894;28;20042;-78
2021/10/08 12:18:58;;;;;;;4.28;1.90;;;27.40;49.10;;;;;;5094441;28;20081;-78
2021/10/08 12:21:39;;;;;;;2.95;1.52;;;27.60;48.30;;;;;;5093307;28;20028;-77
2021/10/08 12:24:07;;;;;;;4.00;1.83;;;27.80;48.40;;;;;;5094167;28;20111;-77
2021/10/08 12:26:39;;;;;;;3.58;1.50;;;27.90;48.40;;;;;;5093960;28;20480;-77
2021/10/08 12:29:12;;;;;;;2.20;1.20;;;28.00;48.10;;;;;;5094411;28;20107;-78
2021/10/08 12:31:57;;;;;;;2.25;0.88;;;28.20;47.10;;;;;;5093284;28;20099;-77
2021/10/08 12:34:39;;;;;;;3.25;1.23;;;28.30;46.40;;;;;;5093989;28;20028;-77
2021/10/08 12:37:11;;;;;;;2.75;1.20;;;28.50;46.20;;;;;;5093807;28;20031;-77
2021/10/08 12:39:56;;;;;;;1.88;0.88;;;28.60;46.00;;;;;;5092279;28;20091;-77
2021/10/08 12:42:25;;;;;;;2.53;0.88;;;28.70;45.90;;;;;;5094001;28;20020;-79
2021/10/08 12:44:58;;;;;;;3.67;0.80;;;28.80;45.50;;;;;;5093897;28;20048;-79
2021/10/08 12:49:52;;;;;;;2.30;0.90;;;29.10;44.70;;;;;;5093700;28;20107;-79